Time;durP1;ratioP1;P1;durP2;ratioP2;P2;SDS_P1;SDS_P2;PMS_P1;PMS_P2;Temp;Humidity;BMP_temperature;BMP_pressure;BME280_temperature;BME280_humidity;BME280_pressure;Samples;Min_cycle;Max_cycle;Signal;HPM_P1;HPM_P2
2023/03/26 00:01:48;;;;;;;;;;;;;;;8.51;35.43;92056.69;4974025;28;19918;-77
2023/03/26 00:04:18;;;;;;;;;;;;;;;8.50;35.94;92062.94;4971359;28;20345;-77
2023/03/26 00:06:47;;;;;;;;;;;;;;;8.48;36.72;92067.66;4956938;28;20005;-77
2023/03/26 00:09:14;;;;;;;;;;;;;;;8.49;36.29;92058.78;4957064;28;20273;-77
2023/03/26 00:11:40;;;;;;;;;;;;;;;8.48;36.33;92057.22;4972541;28;19922;-77
2023/03/26 00:14:06;;;;;;;;;;;;;;;8.48;36.70;92052.00;4972465;28;19914;-77
2023/03/26 00:16:31;;;;;;;;;;;;;;;8.45;36.46;92044.75;4971875;28;19917;-77
2023/03/26 00:18:58;;;;;;;;;;;;;;;8.43;36.08;92039.03;4972080;28;19949;-77
2023/03/26 00:21:26;;;;;;;;;;;;;;;8.45;36.04;92051.81;4972250;28;20013;-77
2023/03/26 00:23:52;;;;;;;;;;;;;;;8.40;36.93;92039.63;4972304;28;20395;-77
2023/03/26 00:26:18;;;;;;;;;;;;;;;8.36;36.33;92043.03;4971597;28;19926;-77
2023/03/26 00:28:44;;;;;;;;;;;;;;;8.31;37.09;92051.72;4987306;28;20364;-77
2023/03/26 00:31:11;;;;;;;;;;;;;;;8.26;37.38;92043.94;4972371;28;19914;-77
2023/03/26 00:33:39;;;;;;;;;;;;;;;8.20;37.75;92039.88;4971000;28;19913;-77
2023/03/26 00:36:08;;;;;;;;;;;;;;;8.15;37.99;92030.28;4971050;28;19918;-77
2023/03/26 00:38:37;;;;;;;;;;;;;;;8.07;38.62;92029.06;4965552;28;20143;-77
2023/03/26 00:41:06;;;;;;;;;;;;;;;8.02;38.80;92025.78;4951777;29;19914;-77
2023/03/26 00:43:34;;;;;;;;;;;;;;;7.94;39.26;92016.72;4959474;28;19973;-77
2023/03/26 00:46:01;;;;;;;;;;;;;;;7.89;39.20;92017.56;4991096;28;19917;-77
2023/03/26 00:48:28;;;;;;;;;;;;;;;7.84;39.35;92022.09;4988243;28;19922;-77
2023/03/26 00:50:54;;;;;;;;;;;;;;;7.79;39.33;92009.09;4974621;28;19910;-77
2023/03/26 00:53:20;;;;;;;;;;;;;;;7.85;37.96;92010.59;4975007;28;19921;-77
2023/03/26 00:55:46;;;;;;;;;;;;;;;7.81;38.33;92014.81;4976104;28;20384;-77
2023/03/26 00:58:12;;;;;;;;;;;;;;;7.80;38.16;91995.03;4975412;28;20020;-77
2023/03/26 01:00:41;;;;;;;;;;;;;;;7.73;38.78;91990.19;4975721;28;20282;-77
2023/03/26 01:03:11;;;;;;;;;;;;;;;7.65;40.21;91982.97;4974248;28;19910;-77
2023/03/26 01:05:42;;;;;;;;;;;;;;;7.55;42.07;91976.06;4974578;28;19914;-77
2023/03/26 01:08:22;;;;;;;;;;;;;;;7.46;41.67;91965.50;4975808;28;19918;-77
2023/03/26 01:10:51;;;;;;;;;;;;;;;7.41;41.20;91970.00;4969450;28;19914;-77
2023/03/26 01:13:18;;;;;;;;;;;;;;;7.37;41.35;91974.22;4971653;28;19918;-77
2023/03/26 01:15:49;;;;;;;;;;;;;;;7.24;42.32;91968.59;4974740;28;19960;-78
2023/03/26 01:18:16;;;;;;;;;;;;;;;7.23;43.15;91981.91;4975749;28;19968;-77
2023/03/26 01:20:45;;;;;;;;;;;;;;;7.15;43.53;91975.47;4974889;28;19918;-77
2023/03/26 01:23:14;;;;;;;;;;;;;;;7.09;43.87;91971.38;4976128;28;19925;-77
2023/03/26 01:25:43;;;;;;;;;;;;;;;7.02;44.01;91966.50;4956780;29;20329;-77
2023/03/26 01:28:11;;;;;;;;;;;;;;;6.97;44.20;91965.78;4958071;29;19925;-77
2023/03/26 01:30:41;;;;;;;;;;;;;;;6.94;43.91;91963.75;4964176;28;19918;-78
2023/03/26 01:33:32;;;;;;;;;;;;;;;6.90;43.96;91973.16;4957158;29;19914;-76
2023/03/26 01:36:07;;;;;;;;;;;;;;;6.87;43.97;91962.22;4974277;28;19914;-76
2023/03/26 01:38:35;;;;;;;;;;;;;;;6.84;43.90;91954.19;4974260;28;20409;-77
2023/03/26 01:41:04;;;;;;;;;;;;;;;6.80;44.13;91959.19;4976066;28;20320;-78
2023/03/26 01:43:39;;;;;;;;;;;;;;;6.79;43.24;91951.66;4975900;28;19914;-78
2023/03/26 01:46:07;;;;;;;;;;;;;;;6.73;44.57;91953.50;4975264;28;19913;-78
2023/03/26 01:48:35;;;;;;;;;;;;;;;6.68;44.59;91962.13;4975354;28;20456;-78
2023/03/26 01:51:01;;;;;;;;;;;;;;;6.63;44.37;91977.03;4975473;28;20024;-78
2023/03/26 01:53:27;;;;;;;;;;;;;;;6.62;43.38;91965.06;4976720;28;19920;-78
2023/03/26 01:56:04;;;;;;;;;;;;;;;6.60;43.15;91964.59;4976095;28;20021;-78
2023/03/26 01:58:41;;;;;;;;;;;;;;;6.59;43.60;91971.59;4975147;28;19949;-78
2023/03/26 02:01:23;;;;;;;;;;;;;;;6.58;43.17;91961.47;4976603;28;20324;-78
2023/03/26 02:03:52;;;;;;;;;;;;;;;6.56;43.11;91942.75;4973524;28;19918;-78
2023/03/26 02:06:21;;;;;;;;;;;;;;;6.51;43.08;91961.78;4959385;28;19910;-78
2023/03/26 02:08:58;;;;;;;;;;;;;;;6.47;43.18;91977.16;4974640;28;19918;-78
2023/03/26 02:11:24;;;;;;;;;;;;;;;6.43;43.66;91973.53;4974951;28;19953;-78
2023/03/26 02:13:50;;;;;;;;;;;;;;;6.38;43.66;91973.59;4975260;28;20328;-78
2023/03/26 02:16:16;;;;;;;;;;;;;;;6.36;42.93;91969.72;4976170;28;19953;-78
2023/03/26 02:18:42;;;;;;;;;;;;;;;6.36;42.86;91970.47;4976323;28;19921;-78
2023/03/26 02:21:11;;;;;;;;;;;;;;;6.35;42.78;91971.53;4957919;28;19914;-78
2023/03/26 02:23:40;;;;;;;;;;;;;;;6.33;43.20;91965.84;4970696;28;19914;-78
2023/03/26 02:26:06;;;;;;;;;;;;;;;6.27;43.31;91956.50;4956083;28;19910;-78
2023/03/26 02:28:33;;;;;;;;;;;;;;;6.24;43.92;91954.47;4970967;28;19961;-78
2023/03/26 02:31:00;;;;;;;;;;;;;;;6.20;43.57;91950.84;4954880;29;20345;-78
2023/03/26 02:33:30;;;;;;;;;;;;;;;6.17;43.60;91946.19;4955438;28;20005;-78
2023/03/26 02:36:00;;;;;;;;;;;;;;;6.10;43.78;91946.50;4956809;28;19960;-78
2023/03/26 02:38:27;;;;;;;;;;;;;;;6.05;45.08;91949.91;4955821;28;19998;-78
2023/03/26 02:40:53;;;;;;;;;;;;;;;5.91;46.36;91958.56;4975341;28;19967;-78
2023/03/26 02:43:22;;;;;;;;;;;;;;;5.85;45.51;91970.78;4975614;28;19918;-78
2023/03/26 02:45:47;;;;;;;;;;;;;;;5.82;45.13;91964.31;4974118;28;19914;-78
2023/03/26 02:48:40;;;;;;;;;;;;;;;5.84;44.73;91953.66;4973062;28;20054;-78
2023/03/26 02:51:18;;;;;;;;;;;;;;;5.86;44.86;91938.59;4973465;28;19918;-77
2023/03/26 02:53:58;;;;;;;;;;;;;;;5.89;44.12;91940.66;4973934;28;20013;-78
2023/03/26 02:56:42;;;;;;;;;;;;;;;5.96;44.28;91946.34;4963556;28;19929;-78
2023/03/26 02:59:22;;;;;;;;;;;;;;;5.96;44.37;91951.53;4953737;29;19984;-78
2023/03/26 03:02:00;;;;;;;;;;;;;;;5.94;44.05;91935.44;4954175;29;19918;-78
2023/03/26 03:04:25;;;;;;;;;;;;;;;5.89;45.29;91924.28;4954498;29;20017;-78
2023/03/26 03:06:56;;;;;;;;;;;;;;;5.86;45.08;91924.84;4953092;28;19922;-78
2023/03/26 03:09:23;;;;;;;;;;;;;;;5.81;46.35;91923.06;4949891;29;20416;-78
2023/03/26 03:12:15;;;;;;;;;;;;;;;5.75;46.51;91914.50;4926755;29;19962;-78
2023/03/26 03:14:40;;;;;;;;;;;;;;;5.72;46.44;91920.25;4953970;29;19997;-78
2023/03/26 03:17:06;;;;;;;;;;;;;;;5.70;47.10;91926.75;4955492;29;19921;-78
2023/03/26 03:19:31;;;;;;;;;;;;;;;5.67;47.53;91932.47;4940676;28;19919;-78
2023/03/26 03:21:57;;;;;;;;;;;;;;;5.65;47.28;91919.75;4935138;29;19970;-78
2023/03/26 03:24:22;;;;;;;;;;;;;;;5.64;46.86;91913.78;4950830;29;19957;-78
2023/03/26 03:26:49;;;;;;;;;;;;;;;5.67;46.20;91902.06;4936275;29;20340;-78
2023/03/26 03:29:24;;;;;;;;;;;;;;;5.71;46.64;91916.09;4941937;28;19970;-78
2023/03/26 03:31:50;;;;;;;;;;;;;;;5.70;47.60;91927.53;4934528;29;19922;-78
2023/03/26 03:34:29;;;;;;;;;;;;;;;5.63;48.53;91933.03;4950237;29;19919;-77
2023/03/26 03:36:55;;;;;;;;;;;;;;;5.60;47.66;91928.34;4966530;28;19989;-78
2023/03/26 03:39:33;;;;;;;;;;;;;;;5.56;47.91;91932.53;4965774;28;19946;-78
2023/03/26 03:41:59;;;;;;;;;;;;;;;5.54;47.60;91924.25;4934111;29;19981;-78
2023/03/26 03:44:25;;;;;;;;;;;;;;;5.53;47.59;91912.28;4934470;29;19922;-78
2023/03/26 03:46:52;;;;;;;;;;;;;;;5.50;48.24;91918.03;4934514;29;19926;-78
2023/03/26 03:49:19;;;;;;;;;;;;;;;5.47;48.39;91915.19;4935330;29;19929;-77
2023/03/26 03:51:45;;;;;;;;;;;;;;;5.43;48.05;91917.56;4953380;29;19918;-78
2023/03/26 03:54:23;;;;;;;;;;;;;;;5.38;48.16;91923.56;4953162;29;20013;-78
2023/03/26 03:57:02;;;;;;;;;;;;;;;5.36;47.51;91917.84;4954512;28;20013;-78
2023/03/26 03:59:46;;;;;;;;;;;;;;;5.36;49.13;91906.69;4954135;29;19962;-77
2023/03/26 04:02:12;;;;;;;;;;;;;;;5.33;48.88;91915.00;4953026;29;19918;-78
2023/03/26 04:04:48;;;;;;;;;;;;;;;5.34;49.54;91916.56;4953473;29;19914;-77
2023/03/26 04:07:16;;;;;;;;;;;;;;;5.31;49.45;91910.06;4952822;29;19918;-78
2023/03/26 04:10:01;;;;;;;;;;;;;;;5.30;48.76;91912.94;4953842;29;20403;-78
2023/03/26 04:12:35;;;;;;;;;;;;;;;5.31;48.67;91914.50;4968810;28;20364;-77
2023/03/26 04:15:02;;;;;;;;;;;;;;;5.32;48.72;91913.47;4953098;29;20273;-77
2023/03/26 04:17:29;;;;;;;;;;;;;;;5.29;48.60;91916.56;4937176;28;19949;-77
2023/03/26 04:19:55;;;;;;;;;;;;;;;5.26;48.48;91923.06;4952636;29;19918;-77
2023/03/26 04:22:35;;;;;;;;;;;;;;;5.25;48.40;91913.75;4948135;29;19918;-77
2023/03/26 04:25:04;;;;;;;;;;;;;;;5.26;48.58;91906.72;4959986;28;20029;-77
2023/03/26 04:27:43;;;;;;;;;;;;;;;5.22;48.81;91906.47;4948412;29;19918;-77
2023/03/26 04:30:19;;;;;;;;;;;;;;;5.20;48.44;91903.38;4966380;28;20270;-77
2023/03/26 04:32:50;;;;;;;;;;;;;;;5.14;48.18;91900.03;4964952;28;19922;-77
2023/03/26 04:35:16;;;;;;;;;;;;;;;5.13;48.66;91903.66;4933541;29;19919;-77
2023/03/26 04:37:45;;;;;;;;;;;;;;;5.10;49.01;91898.25;4933575;29;20002;-77
2023/03/26 04:40:19;;;;;;;;;;;;;;;5.08;48.74;91893.31;4933337;29;19937;-77
2023/03/26 04:43:15;;;;;;;;;;;;;;;5.06;49.17;91903.19;4952828;28;19922;-77
2023/03/26 04:46:02;;;;;;;;;;;;;;;5.03;49.49;91901.13;4953107;29;19929;-77
2023/03/26 04:48:29;;;;;;;;;;;;;;;5.04;48.34;91900.06;4952726;29;20339;-77
2023/03/26 04:50:55;;;;;;;;;;;;;;;5.04;49.17;91907.84;4933149;29;20278;-77
2023/03/26 04:53:23;;;;;;;;;;;;;;;5.03;49.32;91903.72;4957837;28;19918;-77
2023/03/26 04:56:33;;;;;;;;;;;;;;;5.03;50.33;91903.72;4933109;29;19930;-77
2023/03/26 04:59:33;;;;;;;;;;;;;;;5.00;50.76;91906.84;4939767;29;20352;-76
2023/03/26 05:02:00;;;;;;;;;;;;;;;4.98;51.00;91916.72;4932917;29;20357;-77
2023/03/26 05:04:33;;;;;;;;;;;;;;;4.96;51.10;91918.81;4948937;28;19997;-77
2023/03/26 05:06:59;;;;;;;;;;;;;;;4.94;50.93;91910.50;4935354;29;19954;-77
2023/03/26 05:09:33;;;;;;;;;;;;;;;4.94;51.07;91910.50;4948919;29;19919;-77
2023/03/26 05:12:09;;;;;;;;;;;;;;;4.95;50.96;91912.03;4934229;29;19914;-77
2023/03/26 05:14:46;;;;;;;;;;;;;;;4.98;50.90;91911.53;4942461;29;19998;-77
2023/03/26 05:17:20;;;;;;;;;;;;;;;4.98;51.16;91906.34;4937052;29;19981;-77
2023/03/26 05:19:46;;;;;;;;;;;;;;;4.98;51.02;91896.75;4936281;29;20352;-77
2023/03/26 05:22:13;;;;;;;;;;;;;;;5.04;49.35;91899.31;4952058;29;20009;-77
2023/03/26 05:24:53;;;;;;;;;;;;;;;5.09;49.17;91907.84;4935636;29;19922;-77
2023/03/26 05:27:21;;;;;;;;;;;;;;;5.11;50.28;91899.78;4938961;29;20289;-77
2023/03/26 05:29:47;;;;;;;;;;;;;;;5.14;50.55;91897.44;4949249;28;19915;-77
2023/03/26 05:32:12;;;;;;;;;;;;;;;5.15;51.03;91899.00;4955338;29;19925;-77
2023/03/26 05:34:38;;;;;;;;;;;;;;;5.18;50.74;91882.13;4939607;29;20258;-77
2023/03/26 05:37:05;;;;;;;;;;;;;;;5.19;50.77;91876.66;4954009;29;20057;-77
2023/03/26 05:39:50;;;;;;;;;;;;;;;5.27;50.96;91861.56;4954643;29;19914;-76
2023/03/26 05:42:45;;;;;;;;;;;;;;;5.39;50.12;91854.25;4939696;29;19921;-78
2023/03/26 05:45:35;;;;;;;;;;;;;;;5.57;49.71;91858.78;4953981;29;20365;-77
2023/03/26 05:48:12;;;;;;;;;;;;;;;5.78;49.60;91856.03;4968383;28;19919;-78
2023/03/26 05:50:38;;;;;;;;;;;;;;;6.00;49.79;91851.22;4952575;29;19914;-78
2023/03/26 05:53:03;;;;;;;;;;;;;;;6.23;48.54;91856.75;4956787;29;19927;-78
2023/03/26 05:55:44;;;;;;;;;;;;;;;6.95;47.63;91856.00;4970367;28;19928;-77
2023/03/26 05:58:31;;;;;;;;;;;;;;;7.84;46.05;91865.75;4956517;28;19915;-78
2023/03/26 06:01:04;;;;;;;;;;;;;;;8.33;45.36;91862.59;4956080;29;19918;-78
2023/03/26 06:03:43;;;;;;;;;;;;;;;9.28;43.66;91869.25;4971881;28;19918;-78
2023/03/26 06:06:19;;;;;;;;;;;;;;;10.05;41.82;91857.13;4968870;28;19942;-78
2023/03/26 06:08:53;;;;;;;;;;;;;;;10.82;39.29;91851.53;4968906;28;19974;-78
2023/03/26 06:11:19;;;;;;;;;;;;;;;12.00;36.89;91853.47;4968366;28;19926;-78
2023/03/26 06:13:44;;;;;;;;;;;;;;;12.07;38.59;91859.03;4968997;28;19910;-78
2023/03/26 06:16:11;;;;;;;;;;;;;;;12.28;37.24;91871.50;4951628;29;20047;-78
2023/03/26 06:18:42;;;;;;;;;;;;;;;11.95;37.00;91879.06;4921823;29;19937;-79
2023/03/26 06:21:27;;;;;;;;;;;;;;;11.62;39.36;91884.75;4938181;29;19925;-78
2023/03/26 06:23:57;;;;;;;;;;;;;;;11.64;38.83;91878.13;4945854;29;19941;-79
2023/03/26 06:26:38;;;;;;;;;;;;;;;12.37;37.64;91877.50;4956334;29;20330;-78
2023/03/26 06:29:36;;;;;;;;;;;;;;;12.40;38.02;91878.72;4956073;29;20001;-77
2023/03/26 06:32:20;;;;;;;;;;;;;;;12.66;38.50;91882.09;4957633;29;20391;-78
2023/03/26 06:35:05;;;;;;;;;;;;;;;12.74;38.25;91885.00;4955273;29;19918;-79
2023/03/26 06:37:30;;;;;;;;;;;;;;;13.55;35.53;91878.78;4954311;28;19945;-78
2023/03/26 06:39:59;;;;;;;;;;;;;;;14.44;36.20;91885.72;4956293;28;19914;-78
2023/03/26 06:42:45;;;;;;;;;;;;;;;14.51;34.80;91884.09;4949649;29;20025;-78
2023/03/26 06:45:49;;;;;;;;;;;;;;;14.30;34.96;91886.78;4949874;28;19922;-78
2023/03/26 06:48:33;;;;;;;;;;;;;;;15.24;33.08;91882.72;4949680;28;19976;-75
2023/03/26 06:51:17;;;;;;;;;;;;;;;15.67;32.38;91884.06;4954241;28;20316;-81
2023/03/26 06:54:15;;;;;;;;;;;;;;;16.17;31.13;91882.88;4932235;28;19977;-81
2023/03/26 06:57:03;;;;;;;;;;;;;;;16.17;30.06;91896.06;4952015;28;20415;-80
2023/03/26 06:59:28;;;;;;;;;;;;;;;16.30;29.16;91896.81;4967908;28;19965;-78
2023/03/26 07:02:23;;;;;;;;;;;;;;;16.47;30.71;91895.00;4920753;28;19934;-80
2023/03/26 07:05:07;;;;;;;;;;;;;;;17.22;29.62;91883.69;4963302;28;20277;-80
2023/03/26 07:07:51;;;;;;;;;;;;;;;17.45;28.88;91883.84;4955667;29;19980;-79
2023/03/26 07:10:35;;;;;;;;;;;;;;;17.15;28.58;91886.94;4952289;29;19926;-78
2023/03/26 07:13:33;;;;;;;;;;;;;;;17.61;27.14;91883.88;4927666;28;19972;-80
2023/03/26 07:16:17;;;;;;;;;;;;;;;17.16;26.07;91875.28;4954321;29;19920;-79
2023/03/26 07:18:57;;;;;;;;;;;;;;;16.75;27.94;91874.63;4939548;29;19938;-81
2023/03/26 07:21:28;;;;;;;;;;;;;;;15.95;31.49;91870.19;4952941;29;19918;-79
2023/03/26 07:23:54;;;;;;;;;;;;;;;14.96;33.36;91864.16;4952600;29;19930;-78
2023/03/26 07:27:00;;;;;;;;;;;;;;;14.70;35.62;91867.84;4918873;28;19925;-78
2023/03/26 07:29:35;;;;;;;;;;;;;;;14.16;34.21;91868.63;4948370;29;20397;-78
2023/03/26 07:32:14;;;;;;;;;;;;;;;13.93;35.60;91857.66;4950521;28;19914;-79
2023/03/26 07:35:09;;;;;;;;;;;;;;;13.24;36.23;91842.28;4948384;29;20001;-79
2023/03/26 07:37:51;;;;;;;;;;;;;;;13.68;36.84;91840.97;4952594;28;19926;-79
2023/03/26 07:40:43;;;;;;;;;;;;;;;12.34;41.56;91796.78;4942507;28;19914;-78
2023/03/26 07:43:47;;;;;;;;;;;;;;;11.37;44.65;91792.69;4951090;28;20004;-78
2023/03/26 07:46:36;;;;;;;;;;;;;;;11.41;43.98;91790.97;4942584;28;19973;-78
2023/03/26 07:49:31;;;;;;;;;;;;;;;11.44;43.55;91798.22;4947842;28;19919;-78
2023/03/26 07:52:12;;;;;;;;;;;;;;;11.60;44.73;91806.41;4950811;28;20372;-79
2023/03/26 07:54:58;;;;;;;;;;;;;;;11.84;44.89;91805.94;4949568;28;20356;-77
2023/03/26 07:57:45;;;;;;;;;;;;;;;12.19;42.14;91805.91;4945907;29;19942;-78
2023/03/26 08:00:43;;;;;;;;;;;;;;;12.64;39.11;91813.34;4941498;28;19954;-78
2023/03/26 08:03:17;;;;;;;;;;;;;;;12.79;35.17;91821.78;4952624;28;19914;-78
2023/03/26 08:06:11;;;;;;;;;;;;;;;12.37;36.45;91822.38;4954383;28;19954;-79
2023/03/26 08:09:12;;;;;;;;;;;;;;;12.06;36.36;91825.22;4949346;28;19926;-79
2023/03/26 08:12:16;;;;;;;;;;;;;;;11.40;37.36;91828.75;4948359;28;20045;-78
2023/03/26 08:14:41;;;;;;;;;;;;;;;11.33;37.12;91817.94;4951741;29;19918;-79
2023/03/26 08:17:12;;;;;;;;;;;;;;;11.20;35.97;91798.66;4945867;28;19916;-78
2023/03/26 08:19:37;;;;;;;;;;;;;;;11.16;37.01;91802.19;4956317;29;19957;-79
2023/03/26 08:22:15;;;;;;;;;;;;;;;11.23;38.43;91799.88;4956468;28;20175;-79
2023/03/26 08:24:42;;;;;;;;;;;;;;;11.35;39.16;91805.31;4954696;29;19922;-79
2023/03/26 08:27:26;;;;;;;;;;;;;;;11.76;38.08;91798.06;4951887;29;19959;-79
2023/03/26 08:30:21;;;;;;;;;;;;;;;12.20;37.78;91796.19;4937312;29;19922;-78
2023/03/26 08:32:54;;;;;;;;;;;;;;;12.50;40.80;91802.28;4943308;29;19915;-79
2023/03/26 08:35:20;;;;;;;;;;;;;;;12.24;43.08;91792.63;4955251;29;19914;-79
2023/03/26 08:37:46;;;;;;;;;;;;;;;11.53;44.49;91797.44;4954005;29;19925;-79
2023/03/26 08:40:14;;;;;;;;;;;;;;;11.15;47.15;91790.19;4948884;29;19958;-79
2023/03/26 08:42:43;;;;;;;;;;;;;;;10.80;48.55;91787.47;4936693;29;20298;-79
2023/03/26 08:45:11;;;;;;;;;;;;;;;10.54;49.83;91788.16;4937996;29;20001;-79
2023/03/26 08:47:55;;;;;;;;;;;;;;;10.46;51.48;91777.66;4935730;29;19914;-79
2023/03/26 08:50:33;;;;;;;;;;;;;;;10.55;52.05;91781.09;4940949;29;19918;-77
2023/03/26 08:53:02;;;;;;;;;;;;;;;10.52;51.98;91784.31;4955306;29;19914;-79
2023/03/26 08:55:42;;;;;;;;;;;;;;;10.54;52.05;91782.94;4954436;29;19911;-78
2023/03/26 08:58:14;;;;;;;;;;;;;;;10.82;51.26;91780.84;4970072;28;19960;-78
2023/03/26 09:00:45;;;;;;;;;;;;;;;11.20;51.58;91793.41;4956491;29;20384;-78
2023/03/26 09:03:14;;;;;;;;;;;;;;;11.27;50.33;91795.59;4956813;28;19922;-79
2023/03/26 09:05:48;;;;;;;;;;;;;;;11.29;54.27;91793.44;4956010;28;19910;-79
2023/03/26 09:08:29;;;;;;;;;;;;;;;11.23;54.34;91781.53;4958425;29;19924;-79
2023/03/26 09:11:14;;;;;;;;;;;;;;;11.17;55.77;91759.97;4958221;29;20257;-79
2023/03/26 09:13:59;;;;;;;;;;;;;;;11.30;56.11;91760.91;4958225;29;19949;-79
2023/03/26 09:16:28;;;;;;;;;;;;;;;11.06;53.11;91750.13;4939457;29;20369;-78
2023/03/26 09:18:53;;;;;;;;;;;;;;;10.91;56.12;91736.38;4940763;29;19914;-78
2023/03/26 09:21:32;;;;;;;;;;;;;;;10.59;59.87;91746.16;4940342;29;19922;-78
2023/03/26 09:24:16;;;;;;;;;;;;;;;10.43;61.02;91755.50;4939111;29;20388;-77
2023/03/26 09:26:50;;;;;;;;;;;;;;;10.26;63.88;91755.38;4939108;29;20297;-80
2023/03/26 09:29:18;;;;;;;;;;;;;;;10.07;63.40;91753.75;4945612;29;19978;-79
2023/03/26 09:32:04;;;;;;;;;;;;;;;10.00;65.57;91759.41;4957850;29;20300;-79
2023/03/26 09:34:31;;;;;;;;;;;;;;;10.15;65.10;91770.56;4959658;29;19914;-78
2023/03/26 09:37:15;;;;;;;;;;;;;;;10.10;67.84;91779.31;4959712;29;19994;-78
2023/03/26 09:39:41;;;;;;;;;;;;;;;10.30;67.15;91782.53;4960098;28;19926;-78
2023/03/26 09:42:12;;;;;;;;;;;;;;;10.19;68.80;91784.59;4948968;29;19917;-78
2023/03/26 09:44:57;;;;;;;;;;;;;;;10.21;69.21;91783.22;4957995;28;19957;-79
2023/03/26 09:47:33;;;;;;;;;;;;;;;10.20;70.15;91784.28;4956414;29;19921;-79
2023/03/26 09:50:17;;;;;;;;;;;;;;;10.25;69.98;91775.53;4957502;29;19918;-80
2023/03/26 09:52:49;;;;;;;;;;;;;;;10.27;68.53;91767.38;4959563;28;19992;-79
2023/03/26 09:55:14;;;;;;;;;;;;;;;10.24;69.80;91773.22;4959336;29;19914;-79
2023/03/26 09:57:52;;;;;;;;;;;;;;;10.12;71.00;91769.31;4957795;29;19958;-79
2023/03/26 10:00:24;;;;;;;;;;;;;;;10.12;71.20;91764.09;4958540;29;19970;-80
2023/03/26 10:03:07;;;;;;;;;;;;;;;10.19;70.21;91764.44;4947612;28;19915;-79
2023/03/26 10:05:41;;;;;;;;;;;;;;;10.36;68.84;91763.78;4954670;29;19914;-79
2023/03/26 10:08:28;;;;;;;;;;;;;;;10.18;68.86;91755.06;4959332;29;19926;-79
2023/03/26 10:10:57;;;;;;;;;;;;;;;10.21;69.06;91743.22;4958382;28;19942;-78
2023/03/26 10:13:25;;;;;;;;;;;;;;;10.23;69.04;91735.06;4956411;29;19939;-78
2023/03/26 10:15:58;;;;;;;;;;;;;;;10.31;67.37;91716.03;4984434;28;20277;-77
2023/03/26 10:18:35;;;;;;;;;;;;;;;10.37;68.40;91718.22;4957256;28;19946;-78
2023/03/26 10:21:00;;;;;;;;;;;;;;;10.47;68.14;91716.41;4958223;28;19958;-78
2023/03/26 10:23:29;;;;;;;;;;;;;;;10.58;68.23;91715.84;4957420;29;20205;-79
2023/03/26 10:25:55;;;;;;;;;;;;;;;10.36;69.99;91713.31;4957284;29;19914;-79
2023/03/26 10:28:39;;;;;;;;;;;;;;;10.27;70.70;91701.97;4941613;29;19918;-79
2023/03/26 10:31:05;;;;;;;;;;;;;;;10.25;68.76;91712.00;4940113;29;20314;-78
2023/03/26 10:34:00;;;;;;;;;;;;;;;9.97;71.42;91722.63;4953709;29;19911;-79
2023/03/26 10:36:28;;;;;;;;;;;;;;;9.99;72.34;91716.03;4954065;28;19922;-79
2023/03/26 10:38:56;;;;;;;;;;;;;;;10.06;71.24;91720.81;4957711;28;19935;-79
2023/03/26 10:41:22;;;;;;;;;;;;;;;10.18;69.87;91710.59;4957536;29;19925;-79
2023/03/26 10:43:57;;;;;;;;;;;;;;;10.12;71.99;91705.78;4958399;29;19911;-79
2023/03/26 10:46:24;;;;;;;;;;;;;;;10.20;71.16;91687.53;4958234;29;19973;-78
2023/03/26 10:49:07;;;;;;;;;;;;;;;10.30;71.86;91675.25;4941140;29;19914;-79
2023/03/26 10:51:39;;;;;;;;;;;;;;;10.01;72.84;91656.38;4958622;29;20383;-79
2023/03/26 10:54:11;;;;;;;;;;;;;;;10.01;72.78;91671.28;4956797;29;20005;-79
2023/03/26 10:56:43;;;;;;;;;;;;;;;10.35;71.64;91672.50;4955912;29;19922;-79
2023/03/26 10:59:14;;;;;;;;;;;;;;;10.32;70.62;91665.28;4957043;29;19921;-78
2023/03/26 11:01:55;;;;;;;;;;;;;;;10.37;68.55;91668.50;4957130;29;20297;-78
2023/03/26 11:04:36;;;;;;;;;;;;;;;10.26;70.21;91661.22;4958073;29;19977;-78
2023/03/26 11:07:15;;;;;;;;;;;;;;;10.15;72.07;91658.09;4958084;29;19918;-79
2023/03/26 11:10:05;;;;;;;;;;;;;;;10.08;70.68;91669.00;4958907;28;19919;-79
2023/03/26 11:12:41;;;;;;;;;;;;;;;10.03;71.57;91663.16;4956799;29;20343;-78
2023/03/26 11:15:21;;;;;;;;;;;;;;;10.07;70.90;91667.47;4952757;29;19969;-79
2023/03/26 11:17:57;;;;;;;;;;;;;;;10.06;70.98;91668.53;4939182;29;19953;-79
2023/03/26 11:20:34;;;;;;;;;;;;;;;9.98;71.09;91651.75;4949015;29;19921;-79
2023/03/26 11:23:19;;;;;;;;;;;;;;;9.90;72.37;91651.72;4988691;28;19949;-79
2023/03/26 11:25:45;;;;;;;;;;;;;;;9.76;72.05;91657.03;4957648;28;20299;-79
2023/03/26 11:28:14;;;;;;;;;;;;;;;9.62;73.75;91649.28;4957549;28;19945;-79
2023/03/26 11:30:52;;;;;;;;;;;;;;;9.58;74.81;91649.09;4958255;29;19937;-79
2023/03/26 11:33:21;;;;;;;;;;;;;;;9.40;77.18;91649.31;4960269;28;19914;-79
2023/03/26 11:35:52;;;;;;;;;;;;;;;9.41;78.07;91648.22;4957007;29;19918;-79
2023/03/26 11:38:18;;;;;;;;;;;;;;;9.33;79.35;91647.88;4958334;29;19921;-79
2023/03/26 11:40:49;;;;;;;;;;;;;;;9.27;79.89;91653.53;4954422;28;19910;-78
2023/03/26 11:43:43;;;;;;;;;;;;;;;9.14;81.79;91650.69;4964970;28;19961;-80
2023/03/26 11:46:12;;;;;;;;;;;;;;;9.00;82.49;91649.97;4952949;29;19921;-81
2023/03/26 11:48:44;;;;;;;;;;;;;;;8.98;84.72;91653.94;4947795;28;19919;-78
2023/03/26 11:51:31;;;;;;;;;;;;;;;8.91;85.69;91660.34;4955729;28;19922;-80
2023/03/26 11:53:57;;;;;;;;;;;;;;;8.73;87.98;91667.25;4963815;28;19914;-80
2023/03/26 11:56:29;;;;;;;;;;;;;;;8.68;89.60;91664.75;4955289;29;19922;-80
2023/03/26 11:58:59;;;;;;;;;;;;;;;8.48;90.86;91665.19;4956001;29;19918;-80
2023/03/26 12:01:40;;;;;;;;;;;;;;;8.31;92.60;91663.94;4960134;28;19952;-78
2023/03/26 12:04:13;;;;;;;;;;;;;;;8.25;90.21;91672.16;4950886;28;20120;-78
2023/03/26 12:06:49;;;;;;;;;;;;;;;8.28;91.04;91672.31;4944904;28;19918;-79
2023/03/26 12:09:16;;;;;;;;;;;;;;;8.28;91.81;91655.91;4953374;29;19919;-80
2023/03/26 12:11:43;;;;;;;;;;;;;;;8.23;92.78;91650.81;4950570;29;19973;-80
2023/03/26 12:14:15;;;;;;;;;;;;;;;8.10;89.29;91647.91;4943369;29;19918;-79
2023/03/26 12:16:55;;;;;;;;;;;;;;;7.92;91.20;91643.56;4952547;29;19920;-79
2023/03/26 12:19:23;;;;;;;;;;;;;;;7.92;92.89;91640.97;4955422;28;19918;-80
2023/03/26 12:21:50;;;;;;;;;;;;;;;7.98;93.38;91637.22;4954022;28;20332;-78
2023/03/26 12:24:41;;;;;;;;;;;;;;;8.05;91.08;91632.38;4952826;28;19922;-79
2023/03/26 12:27:19;;;;;;;;;;;;;;;8.01;85.05;91628.78;4948982;28;19914;-80
2023/03/26 12:29:49;;;;;;;;;;;;;;;8.16;86.48;91626.97;4952043;29;19918;-80
2023/03/26 12:32:15;;;;;;;;;;;;;;;8.25;85.14;91625.97;4947140;28;19914;-80
2023/03/26 12:34:40;;;;;;;;;;;;;;;8.27;83.04;91612.66;4949574;29;19918;-79
2023/03/26 12:37:07;;;;;;;;;;;;;;;8.26;89.41;91611.09;4967517;28;20017;-80
2023/03/26 12:39:42;;;;;;;;;;;;;;;8.25;81.94;91610.34;4953328;28;20325;-80
2023/03/26 12:42:25;;;;;;;;;;;;;;;8.14;82.36;91601.94;4954569;29;19958;-80
2023/03/26 12:44:51;;;;;;;;;;;;;;;8.19;86.91;91601.06;4941864;29;19918;-78
2023/03/26 12:47:22;;;;;;;;;;;;;;;8.08;92.35;91590.09;4960317;28;20046;-80
2023/03/26 12:49:48;;;;;;;;;;;;;;;8.02;98.94;91580.06;4958411;29;19918;-79
2023/03/26 12:52:13;;;;;;;;;;;;;;;7.91;100.00;91569.06;4957762;29;19921;-80
2023/03/26 12:54:41;;;;;;;;;;;;;;;7.76;100.00;91577.19;4946706;28;19914;-80
2023/03/26 12:57:07;;;;;;;;;;;;;;;7.69;100.00;91599.19;4949899;29;19973;-80
2023/03/26 12:59:45;;;;;;;;;;;;;;;7.63;100.00;91595.16;4956409;28;20380;-80
2023/03/26 13:02:10;;;;;;;;;;;;;;;7.58;97.82;91586.63;4946714;29;19937;-80
2023/03/26 13:04:39;;;;;;;;;;;;;;;7.59;100.00;91567.34;4947504;28;19922;-80
2023/03/26 13:07:23;;;;;;;;;;;;;;;7.62;100.00;91556.34;4954031;28;20339;-80
2023/03/26 13:09:54;;;;;;;;;;;;;;;7.80;100.00;91558.06;4954808;28;19944;-80
2023/03/26 13:12:23;;;;;;;;;;;;;;;7.61;100.00;91560.00;4957432;28;19925;-81
2023/03/26 13:14:52;;;;;;;;;;;;;;;7.56;100.00;91545.25;4959714;28;19960;-81
2023/03/26 13:17:36;;;;;;;;;;;;;;;7.42;100.00;91554.91;4950838;28;20365;-79
2023/03/26 13:20:11;;;;;;;;;;;;;;;7.30;100.00;91566.56;4957728;28;19954;-81
2023/03/26 13:22:51;;;;;;;;;;;;;;;7.18;100.00;91562.88;4951462;28;20288;-81
2023/03/26 13:25:49;;;;;;;;;;;;;;;7.20;100.00;91552.94;4941375;29;19920;-82
2023/03/26 13:28:14;;;;;;;;;;;;;;;7.30;100.00;91561.34;4915034;29;20400;-82
2023/03/26 13:30:44;;;;;;;;;;;;;;;7.34;100.00;91556.34;4956996;28;19999;-80